Genegantslet, New York
Current Conditions -  °F | °C
As of 5:53 AM on Friday 31 Oct 2014 (Local Time) from KBGM Reporting Station
Clear Clear  
Wind Chill: 30°   Ceiling: Unl
Heat Index: 34°   Visibility: 10mi
Dew Point: 31°   Wind: 5mph
Humidity: 89%   Direction: 240°WSW
Pressure: 29.98"   Gusts: NA
Location:  42.3542°N, 75.7469°W
Report Text: KBGM 310953Z 24004KT 10SM CLR 01/M01 A2998 RMK AO2 SLP165 T00111006
Loading
Personal Weather Stations






























Interactive Weather Map New forecast layout! Learn more

10-Day Weather Forecast

Advertisements
Track Severe Weather on mobile